This is the latest recevied weather packets stored in our database for station/object EA4BCR. If no packets are shown the sender has not sent any weather packets the latest 10 day(s).
| Time | Temp. | Humidity | Pressure | Rain* | Wind** | Luminosity | Snow |
|---|---|---|---|---|---|---|---|
| 1787560211 | 23.33° C | 57% | 1013.5 hPa | - | - | - | - |
| 1787559611 | 22.78° C | 65% | 1013.5 hPa | - | - | - | - |
| 1787559011 | 23.33° C | 61% | 1013.4 hPa | - | - | - | - |
| 1787558411 | 22.78° C | 69% | 1013.7 hPa | - | - | - | - |
| 1787557811 | 22.78° C | 67% | 1013.7 hPa | - | - | - | - |
| 1787557211 | 22.22° C | 69% | 1013.8 hPa | - | - | - | - |
| 1787556611 | 22.22° C | 69% | 1013.9 hPa | - | - | - | - |
| 1787556011 | 22.22° C | 72% | 1013.9 hPa | - | - | - | - |
| 1787555411 | 22.22° C | 74% | 1013.9 hPa | - | - | - | - |
| 1787554811 | 21.67° C | 79% | 1013.9 hPa | - | - | - | - |
| 1787554211 | 21.67° C | 80% | 1013.8 hPa | - | - | - | - |
| 1787553611 | 22.22° C | 86% | 1013.7 hPa | - | - | - | - |
| 1787553011 | 21.11° C | 91% | 1014 hPa | - | - | - | - |
| 1787552411 | 22.22° C | 89% | 1013.8 hPa | - | - | - | - |
| 1787551811 | 22.22° C | 89% | 1013.7 hPa | - | - | - | - |
| 1787551211 | 22.22° C | 90% | 1013.5 hPa | - | - | - | - |
| 1787550611 | 22.22° C | 96% | 1013.5 hPa | - | - | - | - |
| 1787550012 | 22.22° C | 99% | 1013.5 hPa | - | - | - | - |
| 1787549411 | 22.22° C | 99% | 1013.4 hPa | - | - | - | - |
| 1787548811 | 22.22° C | 98% | 1013.5 hPa | - | - | - | - |
| 1787548211 | 22.78° C | 98% | 1013.3 hPa | - | - | - | - |
| 1787547611 | 22.78° C | 99% | 1013.2 hPa | - | - | - | - |
| 1787547011 | 22.78° C | 98% | 1013.1 hPa | - | - | - | - |
| 1787546411 | 22.78° C | 99% | 1013 hPa | - | - | - | - |
| 1787545811 | 22.78° C | 10% | - | - | - | - | - |
* Rain since midnight (hover to see other rain measurements)
** Current wind speed in m/s (hover to see current wind gust speed)